Bueyeros, New Mexico
Current Conditions -  °F | °C
As of 5:55 AM on Friday 24 Oct 2014 (Local Time) from KCAO Reporting Station
Clear Clear  
Wind Chill: 56°   Ceiling: Unl
Heat Index: 56°   Visibility: 10mi
Dew Point: 41°   Wind: 12mph
Humidity: 57%   Direction: 260°W
Pressure: 30.17"   Gusts: NA
Location:  36.2639°N, 103.376°W
Report Text: KCAO 241155Z AUTO 26010KT 10SM CLR 13/05 A3017 RMK AO2 SLP169 T01330050 10139 20111 55004
Loading
Personal Weather Stations






























Interactive Weather Map
Tropical Storm Tracking
New forecast layout! Learn more

10-Day Weather Forecast

Advertisements
Track Severe Weather on mobile